Norway, SC (29113)

5:00 AM EST on December 29, 2014 (GMT -0500)
Morgantown | Change Station
CLOSE
Current Station
Personal Weather Station
Location: Springfield, SC
Elevation: 243 ft
Nearby Weather Stations

Elev 243 ft 33.48 °N, 81.24 °W | Updated 6 seconds ago

Overcast
Overcast
59.8 °F
Feels Like 59.8 °F
N
0.0
Wind Variable Wind from West
Gusts 0.0 mph

Today
High -- | Low -- °F
--% Chance of Precip.
Yesterday
High -- | Low -- °F
Precip. -- in
7:27 AM 5:25 PM
First Quarter, 57% visible
Pressure 29.99 in
Visibility 2.5 miles
Clouds Clear
Dew Point 59 °F
Humidity 96%
Rainfall 0.00 in
Snow Depth Not available.
UV 0.0 out of 12
Pollen .10 out of 12
Air Quality Not available.
Flu Activity Not available.
METAR KOGB 290953Z AUTO 18005KT 2 1/2SM BR CLR 15/14 A3000 RMK AO2 SLP156 T01500139

More Conditions Fewer Conditions

Pressure 29.99 in
Visibility 2.5 miles
Clouds Clear
Dew Point 59 °F
Humidity 96%
Rainfall 0.00 in
Snow Depth Not available.
UV 0.0 out of 12
Pollen .10 out of 12
Air Quality Not available.
Flu Activity Not available.
METAR KOGB 290953Z AUTO 18005KT 2 1/2SM BR CLR 15/14 A3000 RMK AO2 SLP156 T01500139

More Conditions Fewer Conditions

10-Day Weather Forecast

Almanac

Astronomy

Dec. 29, 2014 Rise Set
Actual Time
Civil Twilight
Nautical Twilight
Astronomical Twilight
Moon
Length of Visible Light
Length of Day
Tomorrow will be .
, % of the Moon is Illuminated

Today's Extremes

State Highs State Lows

Community

WunderPhotos

Upload Photos

1,781,563 photos uploaded!

WunderBlogs® & News

Nearby

Air Quality

  Air Quality AQ Index Pollutant
Not available.

Snow Depth

Station Depth Elevation

Earthquake Activity

City Distance Mag. Time & Date
Minimum magnitude displayed is 2.5.

Coastal Water Temperatures

Place Temperature

Nearby Weather Stations